createdAt,value
2022-09-22T00:01:06.999Z,25.31
2022-09-22T00:03:57.217Z,25.31
2022-09-22T00:06:48.650Z,25.29
2022-09-22T00:09:37.373Z,25.32
2022-09-22T00:12:25.869Z,25.31
2022-09-22T00:15:15.910Z,25.36
2022-09-22T00:18:04.439Z,25.30
2022-09-22T00:20:53.072Z,25.32
2022-09-22T00:23:42.572Z,25.27
2022-09-22T00:26:31.238Z,25.30
2022-09-22T00:29:19.835Z,25.25
2022-09-22T00:32:09.882Z,25.27
2022-09-22T00:34:58.363Z,25.22
2022-09-22T00:37:46.860Z,25.19
2022-09-22T00:40:36.086Z,25.22
2022-09-22T00:43:26.317Z,25.20
2022-09-22T00:46:19.570Z,25.19
2022-09-22T00:49:10.128Z,25.22
2022-09-22T00:51:58.787Z,25.19
2022-09-22T00:54:47.437Z,25.20
2022-09-22T00:57:37.397Z,25.20
2022-09-22T01:00:25.873Z,25.20
2022-09-22T01:03:17.812Z,25.17
2022-09-22T01:06:09.619Z,25.16
2022-09-22T01:08:58.661Z,25.16
2022-09-22T01:11:47.146Z,25.16
2022-09-22T01:14:47.711Z,25.15
2022-09-22T01:17:46.061Z,25.18
2022-09-22T01:20:59.896Z,25.14
2022-09-22T01:24:40.139Z,25.12
2022-09-22T01:27:56.906Z,25.12
2022-09-22T01:30:48.182Z,25.12
2022-09-22T01:33:43.565Z,25.07
2022-09-22T01:36:37.235Z,25.08
2022-09-22T01:39:30.145Z,25.04
2022-09-22T01:42:24.539Z,25.05
2022-09-22T01:45:16.214Z,25.05
2022-09-22T01:48:10.069Z,25.04
2022-09-22T01:51:01.584Z,25.03
2022-09-22T01:53:53.091Z,25.03
2022-09-22T01:56:43.984Z,25.03
2022-09-22T01:59:34.932Z,25.03
2022-09-22T02:02:25.641Z,25.03
2022-09-22T02:05:20.088Z,25.03
2022-09-22T02:08:11.766Z,25.03
2022-09-22T02:11:04.218Z,25.02
2022-09-22T02:13:52.907Z,25.03
2022-09-22T02:16:41.364Z,25.03
2022-09-22T02:19:32.092Z,25.05
2022-09-22T02:22:22.665Z,25.05
2022-09-22T02:25:12.942Z,25.05
2022-09-22T02:28:01.484Z,25.05
2022-09-22T02:31:17.450Z,25.05
2022-09-22T02:34:00.655Z,25.04
2022-09-22T02:36:53.670Z,25.05
2022-09-22T02:39:48.360Z,25.05
2022-09-22T02:42:41.428Z,25.04
2022-09-22T02:45:32.974Z,25.02
2022-09-22T02:48:23.367Z,25.04
2022-09-22T02:51:12.074Z,25.03
2022-09-22T02:54:01.758Z,25.05
2022-09-22T02:56:51.580Z,25.05
2022-09-22T02:59:39.996Z,24.99
2022-09-22T03:02:28.444Z,24.98
2022-09-22T03:05:17.012Z,24.99
2022-09-22T03:08:05.542Z,24.98
2022-09-22T03:10:53.947Z,24.99
2022-09-22T03:13:43.698Z,25.00
2022-09-22T03:16:32.144Z,25.01
2022-09-22T03:19:20.615Z,24.97
2022-09-22T03:22:09.312Z,24.99
2022-09-22T03:24:57.763Z,24.98
2022-09-22T03:27:48.298Z,25.01
2022-09-22T03:30:40.284Z,24.99
2022-09-22T03:33:28.779Z,24.96
2022-09-22T03:36:17.232Z,25.00
2022-09-22T03:39:05.811Z,25.02
2022-09-22T03:41:54.262Z,24.98
2022-09-22T03:44:42.683Z,24.93
2022-09-22T03:47:32.734Z,24.95
2022-09-22T03:50:21.238Z,24.92
2022-09-22T03:53:09.730Z,24.93
2022-09-22T03:56:07.020Z,24.92
2022-09-22T03:58:55.538Z,24.92
2022-09-22T04:01:44.212Z,24.92
2022-09-22T04:04:34.023Z,24.90
2022-09-22T04:07:22.476Z,24.93
2022-09-22T04:10:11.163Z,24.91
2022-09-22T04:12:59.569Z,24.90
2022-09-22T04:15:48.087Z,24.89
2022-09-22T04:18:40.164Z,24.97
2022-09-22T04:21:29.997Z,24.94
2022-09-22T04:24:18.476Z,24.95
2022-09-22T04:27:22.580Z,24.96
2022-09-22T04:30:12.592Z,24.96
2022-09-22T04:33:01.100Z,24.95
2022-09-22T04:35:49.739Z,24.94
2022-09-22T04:38:39.554Z,24.96
2022-09-22T04:41:28.451Z,25.02
2022-09-22T04:44:16.898Z,25.01
2022-09-22T04:47:05.782Z,25.03
2022-09-22T04:49:54.614Z,25.01
2022-09-22T04:52:46.523Z,25.05
2022-09-22T04:55:36.712Z,25.22
2022-09-22T04:58:25.247Z,25.10
2022-09-22T05:01:13.747Z,25.14
2022-09-22T05:04:02.526Z,25.17
2022-09-22T05:06:51.321Z,25.15
2022-09-22T05:09:39.801Z,25.18
2022-09-22T05:12:29.654Z,25.26
2022-09-22T05:15:18.297Z,25.26
2022-09-22T05:18:07.234Z,25.29
2022-09-22T05:20:55.690Z,25.31
2022-09-22T05:23:44.150Z,25.30
2022-09-22T05:26:32.559Z,25.40
2022-09-22T05:29:25.856Z,25.30
2022-09-22T05:32:16.316Z,25.25
2022-09-22T05:35:05.019Z,25.27
2022-09-22T05:37:54.373Z,25.19
2022-09-22T05:40:42.830Z,25.12
2022-09-22T05:43:31.305Z,25.06
2022-09-22T05:46:21.129Z,25.01
2022-09-22T05:49:09.702Z,24.99
2022-09-22T05:51:58.944Z,24.98
2022-09-22T05:54:47.496Z,24.98
2022-09-22T05:57:36.144Z,24.95
2022-09-22T06:00:24.594Z,24.95
2022-09-22T06:03:17.584Z,24.92
2022-09-22T06:06:06.202Z,24.89
2022-09-22T06:08:54.731Z,24.90
2022-09-22T06:11:44.317Z,24.88
2022-09-22T06:14:32.786Z,24.89
2022-09-22T06:17:21.180Z,24.88
2022-09-22T06:20:11.492Z,24.88
2022-09-22T06:23:00.006Z,24.87
2022-09-22T06:25:48.510Z,24.87
2022-09-22T06:28:37.034Z,24.88
2022-09-22T06:31:25.852Z,24.85
2022-09-22T06:34:14.421Z,24.85
2022-09-22T06:37:06.307Z,24.85
2022-09-22T06:39:54.735Z,24.86
2022-09-22T06:42:43.445Z,24.86
2022-09-22T06:45:33.120Z,24.88
2022-09-22T06:48:23.830Z,24.88
2022-09-22T06:51:14.099Z,24.86
2022-09-22T06:54:05.440Z,24.86
2022-09-22T06:56:55.109Z,24.86
2022-09-22T06:59:44.594Z,24.87
2022-09-22T07:02:33.005Z,24.87
2022-09-22T07:05:21.459Z,24.87
2022-09-22T07:08:09.960Z,24.89
2022-09-22T07:11:02.301Z,24.90
2022-09-22T07:13:53.366Z,24.91
2022-09-22T07:16:44.345Z,24.93
2022-09-22T07:19:36.211Z,24.94
2022-09-22T07:22:24.650Z,24.96
2022-09-22T07:25:13.232Z,24.95
2022-09-22T07:28:05.369Z,24.99
2022-09-22T07:30:53.787Z,24.99
2022-09-22T07:33:44.550Z,25.00
2022-09-22T07:36:34.275Z,24.99
2022-09-22T07:39:25.085Z,24.99
2022-09-22T07:42:14.720Z,25.00
2022-09-22T07:45:16.468Z,25.04
2022-09-22T07:48:24.432Z,25.04
2022-09-22T07:51:16.919Z,25.07
2022-09-22T07:54:07.393Z,25.07
2022-09-22T07:56:58.139Z,25.08
2022-09-22T07:59:46.951Z,25.08
2022-09-22T08:02:36.724Z,25.09
2022-09-22T08:05:26.807Z,25.10
2022-09-22T08:08:15.219Z,25.12
2022-09-22T08:11:08.286Z,25.11
2022-09-22T08:13:58.380Z,25.13
2022-09-22T08:16:47.169Z,25.13
2022-09-22T08:19:37.511Z,25.13
2022-09-22T08:22:26.046Z,25.14
2022-09-22T08:25:14.805Z,25.16
2022-09-22T08:28:04.489Z,25.14
2022-09-22T08:30:52.978Z,25.15
2022-09-22T08:33:42.521Z,25.16
2022-09-22T08:36:32.338Z,25.17
2022-09-22T08:39:20.789Z,25.17
2022-09-22T08:42:13.874Z,25.18
2022-09-22T08:45:06.855Z,25.20
2022-09-22T08:48:15.037Z,25.19
2022-09-22T08:51:24.726Z,25.21
2022-09-22T08:54:15.311Z,25.22
2022-09-22T08:57:21.466Z,25.22
2022-09-22T09:00:14.588Z,25.21
2022-09-22T09:03:16.348Z,25.21
2022-09-22T09:06:12.155Z,25.21
2022-09-22T09:09:20.624Z,25.21
2022-09-22T09:12:21.924Z,25.22
2022-09-22T09:15:33.975Z,25.21
2022-09-22T09:18:24.914Z,25.22
2022-09-22T09:21:16.301Z,25.21
2022-09-22T09:27:21.726Z,25.23
2022-09-22T09:30:14.384Z,25.23
2022-09-22T09:33:04.675Z,25.23
2022-09-22T09:35:53.663Z,25.22
2022-09-22T09:38:46.458Z,25.23
2022-09-22T09:41:39.497Z,25.23
2022-09-22T09:44:33.471Z,25.24
2022-09-22T09:47:30.185Z,25.24
2022-09-22T09:50:19.993Z,25.26
2022-09-22T09:53:18.952Z,25.26
2022-09-22T09:56:22.936Z,25.28
2022-09-22T09:59:32.063Z,25.32
2022-09-22T10:02:23.945Z,25.33
2022-09-22T10:05:22.412Z,25.35
2022-09-22T10:08:20.130Z,25.36
2022-09-22T10:11:09.746Z,25.39
2022-09-22T10:13:59.043Z,25.40
2022-09-22T10:16:53.043Z,25.41
2022-09-22T10:19:42.788Z,25.42
2022-09-22T10:22:31.305Z,25.44
2022-09-22T10:25:23.558Z,25.45
2022-09-22T10:28:16.340Z,25.46
2022-09-22T10:31:04.894Z,25.46
2022-09-22T10:33:56.922Z,25.48
2022-09-22T10:36:49.377Z,25.48
2022-09-22T10:39:41.928Z,25.48
2022-09-22T10:42:34.311Z,25.48
2022-09-22T10:45:32.082Z,25.46
2022-09-22T10:48:26.213Z,25.46
2022-09-22T10:51:18.250Z,25.45
2022-09-22T10:54:20.102Z,25.44
2022-09-22T10:57:17.870Z,25.44
2022-09-22T11:00:12.465Z,25.42
2022-09-22T11:03:23.997Z,25.41
2022-09-22T11:06:42.419Z,25.41
2022-09-22T11:09:54.976Z,25.39
2022-09-22T11:12:49.995Z,25.39
2022-09-22T11:15:46.375Z,25.36
2022-09-22T11:18:45.130Z,25.36
2022-09-22T11:21:44.044Z,25.36
2022-09-22T11:24:46.578Z,25.36
2022-09-22T11:27:43.860Z,25.39
2022-09-22T11:30:35.888Z,25.38
2022-09-22T11:33:37.253Z,25.40
2022-09-22T11:36:35.745Z,25.40
2022-09-22T11:39:37.977Z,25.42
2022-09-22T11:42:31.909Z,25.43
2022-09-22T11:45:34.027Z,25.44
2022-09-22T11:48:34.443Z,25.45
2022-09-22T11:51:32.480Z,25.45
2022-09-22T11:54:32.003Z,25.46
2022-09-22T11:57:24.852Z,25.48
2022-09-22T12:00:16.400Z,25.47
2022-09-22T12:03:09.526Z,25.49
2022-09-22T12:06:00.800Z,25.50
2022-09-22T12:11:47.664Z,25.51
2022-09-22T12:14:38.356Z,25.51
2022-09-22T12:17:35.192Z,25.54
2022-09-22T12:20:37.075Z,25.55
2022-09-22T12:23:36.951Z,25.54
2022-09-22T12:26:29.250Z,25.53
2022-09-22T12:29:28.563Z,25.56
2022-09-22T12:32:24.986Z,25.57
2022-09-22T12:35:19.362Z,25.59
2022-09-22T12:38:07.915Z,25.59
2022-09-22T12:41:03.493Z,25.60
2022-09-22T12:43:52.179Z,25.62
2022-09-22T12:46:43.279Z,25.64
2022-09-22T12:49:33.198Z,25.66
2022-09-22T12:52:38.856Z,25.66
2022-09-22T12:55:38.425Z,25.63
2022-09-22T12:58:46.049Z,25.67
2022-09-22T13:01:35.902Z,25.66
2022-09-22T13:04:25.442Z,25.66
2022-09-22T13:07:35.130Z,25.67
2022-09-22T13:10:42.811Z,25.70
2022-09-22T13:13:39.921Z,25.71
2022-09-22T13:16:36.414Z,25.70
2022-09-22T13:19:24.895Z,25.45
2022-09-22T13:22:17.738Z,25.26
2022-09-22T13:25:26.867Z,25.32
2022-09-22T13:28:18.091Z,25.34
2022-09-22T13:31:17.162Z,25.35
2022-09-22T13:34:22.802Z,25.40
2022-09-22T13:37:13.950Z,25.37
2022-09-22T13:40:02.690Z,25.41
2022-09-22T13:42:53.606Z,25.36
2022-09-22T13:45:42.048Z,25.36
2022-09-22T13:48:34.135Z,25.39
2022-09-22T13:51:24.962Z,25.41
2022-09-22T13:54:16.563Z,25.33
2022-09-22T13:57:06.722Z,25.33
2022-09-22T13:59:58.335Z,25.32
2022-09-22T14:02:46.963Z,25.27
2022-09-22T14:05:36.846Z,25.28
2022-09-22T14:08:29.513Z,25.35
2022-09-22T14:11:20.680Z,25.37
2022-09-22T14:14:23.216Z,25.33
2022-09-22T14:17:17.640Z,25.34
2022-09-22T14:20:07.662Z,25.31
2022-09-22T14:22:56.469Z,25.35
2022-09-22T14:25:45.377Z,25.36
2022-09-22T14:28:37.094Z,25.49
2022-09-22T14:31:27.920Z,25.40
2022-09-22T14:34:22.798Z,25.40
2022-09-22T14:37:18.358Z,25.40
2022-09-22T14:40:15.475Z,25.46
2022-09-22T14:43:08.893Z,25.48
2022-09-22T14:46:06.058Z,25.58
2022-09-22T14:48:57.449Z,25.58
2022-09-22T14:51:49.242Z,25.61
2022-09-22T14:54:39.018Z,25.64
2022-09-22T14:57:28.592Z,25.69
2022-09-22T15:00:36.352Z,25.77
2022-09-22T15:03:28.086Z,25.80
2022-09-22T15:06:16.684Z,25.80
2022-09-22T15:09:07.167Z,25.81
2022-09-22T15:11:57.857Z,25.84
2022-09-22T15:14:47.157Z,25.83
2022-09-22T15:17:55.872Z,25.87
2022-09-22T15:20:47.013Z,25.90
2022-09-22T15:23:41.078Z,25.88
2022-09-22T15:26:32.890Z,25.84
2022-09-22T15:29:21.422Z,25.84
2022-09-22T15:32:10.117Z,25.88
2022-09-22T15:34:58.967Z,25.84
2022-09-22T15:37:49.670Z,25.82
2022-09-22T15:40:38.154Z,25.83
2022-09-22T15:43:30.942Z,25.78
2022-09-22T15:46:28.227Z,25.82
2022-09-22T15:49:20.826Z,25.77
2022-09-22T15:52:10.663Z,25.75
2022-09-22T15:55:02.031Z,25.80
2022-09-22T15:57:52.731Z,25.81
2022-09-22T16:00:42.612Z,25.73
2022-09-22T16:03:31.431Z,25.74
2022-09-22T16:06:21.279Z,25.69
2022-09-22T16:09:11.624Z,25.64
2022-09-22T16:12:00.163Z,25.71
2022-09-22T16:14:52.069Z,25.63
2022-09-22T16:17:42.925Z,25.64
2022-09-22T16:20:33.743Z,25.55
2022-09-22T16:23:22.389Z,25.53
2022-09-22T16:26:10.974Z,25.58
2022-09-22T16:29:00.012Z,25.58
2022-09-22T16:31:48.982Z,25.55
2022-09-22T16:34:38.898Z,25.50
2022-09-22T16:37:29.177Z,25.46
2022-09-22T16:40:19.929Z,25.42
2022-09-22T16:43:09.383Z,25.40
2022-09-22T16:46:15.827Z,25.39
2022-09-22T16:49:06.041Z,25.36
2022-09-22T16:51:56.274Z,25.40
2022-09-22T16:54:44.724Z,25.37
2022-09-22T16:57:34.366Z,25.34
2022-09-22T17:00:22.805Z,25.37
2022-09-22T17:03:11.231Z,25.36
2022-09-22T17:06:05.407Z,25.36
2022-09-22T17:08:57.050Z,25.38
2022-09-22T17:11:47.467Z,25.39
2022-09-22T17:14:37.022Z,25.43
2022-09-22T17:17:25.597Z,25.44
2022-09-22T17:20:13.999Z,25.47
2022-09-22T17:23:02.543Z,25.52
2022-09-22T17:25:52.859Z,25.53
2022-09-22T17:28:41.385Z,25.52
2022-09-22T17:31:31.116Z,25.57
2022-09-22T17:34:19.704Z,25.55
2022-09-22T17:37:14.098Z,25.51
2022-09-22T17:40:02.990Z,25.50
2022-09-22T17:42:57.199Z,25.50
2022-09-22T17:45:46.141Z,25.49
2022-09-22T17:48:59.085Z,25.52
2022-09-22T17:52:06.738Z,25.52
2022-09-22T17:55:11.750Z,25.53
2022-09-22T17:58:01.603Z,25.57
2022-09-22T18:00:51.667Z,25.58
2022-09-22T18:03:40.125Z,25.57
2022-09-22T18:06:28.562Z,25.53
2022-09-22T18:09:17.912Z,25.52
2022-09-22T18:12:10.048Z,25.50
2022-09-22T18:15:03.880Z,25.49
2022-09-22T18:17:55.566Z,25.53
2022-09-22T18:20:44.019Z,25.51
2022-09-22T18:23:32.535Z,25.50
2022-09-22T18:26:21.176Z,25.49
2022-09-22T18:29:10.558Z,25.50
2022-09-22T18:32:00.423Z,25.48
2022-09-22T18:34:51.271Z,25.49
2022-09-22T18:37:39.732Z,25.49
2022-09-22T18:40:30.074Z,25.49
2022-09-22T18:43:18.636Z,25.48
2022-09-22T18:46:07.364Z,25.47
2022-09-22T18:49:04.879Z,25.47
2022-09-22T18:51:56.497Z,25.46
2022-09-22T18:54:44.969Z,25.47
2022-09-22T18:57:33.423Z,25.48
2022-09-22T19:00:22.189Z,25.48
2022-09-22T19:03:10.965Z,25.48
2022-09-22T19:06:00.834Z,25.48
2022-09-22T19:08:49.337Z,25.48
2022-09-22T19:11:38.317Z,25.46
2022-09-22T19:14:27.074Z,25.45
2022-09-22T19:17:17.239Z,25.47
2022-09-22T19:20:07.097Z,25.47
2022-09-22T19:22:57.558Z,25.51
2022-09-22T19:25:46.470Z,25.55
2022-09-22T19:28:35.507Z,25.53
2022-09-22T19:31:23.908Z,25.54
2022-09-22T19:34:13.542Z,25.53
2022-09-22T19:37:01.999Z,25.57
2022-09-22T19:39:51.978Z,25.60
2022-09-22T19:42:40.652Z,25.62
2022-09-22T19:45:29.363Z,25.64
2022-09-22T19:48:17.756Z,25.67
2022-09-22T19:51:06.813Z,25.70
2022-09-22T19:53:55.202Z,25.74
2022-09-22T19:56:44.957Z,25.71
2022-09-22T19:59:33.499Z,25.70
2022-09-22T20:02:21.863Z,25.92
2022-09-22T20:05:19.423Z,25.81
2022-09-22T20:08:15.636Z,25.71
2022-09-22T20:11:22.995Z,25.67
2022-09-22T20:14:25.304Z,25.65
2022-09-22T20:17:13.935Z,25.63
2022-09-22T20:20:05.770Z,25.52
2022-09-22T20:22:59.323Z,25.51
2022-09-22T20:25:48.895Z,25.45
2022-09-22T20:28:41.351Z,25.43
2022-09-22T20:31:32.655Z,25.43
2022-09-22T20:34:21.257Z,25.46
2022-09-22T20:37:10.768Z,25.44
2022-09-22T20:39:59.397Z,25.48
2022-09-22T20:42:48.621Z,25.49
2022-09-22T20:45:37.239Z,25.46
2022-09-22T20:48:27.467Z,25.44
2022-09-22T20:51:16.145Z,25.38
2022-09-22T20:54:04.658Z,25.42
2022-09-22T20:56:55.694Z,25.37
2022-09-22T20:59:46.173Z,25.34
2022-09-22T21:02:35.024Z,25.28
2022-09-22T21:05:25.104Z,25.29
2022-09-22T21:08:31.184Z,25.36
2022-09-22T21:11:21.465Z,25.32
2022-09-22T21:14:11.234Z,25.27
2022-09-22T21:17:02.261Z,25.29
2022-09-22T21:19:50.872Z,25.26
2022-09-22T21:22:40.988Z,25.29
2022-09-22T21:25:30.842Z,25.22
2022-09-22T21:28:19.466Z,25.18
2022-09-22T21:31:14.648Z,25.23
2022-09-22T21:34:03.386Z,25.20
2022-09-22T21:36:54.051Z,25.11
2022-09-22T21:39:44.014Z,25.11
2022-09-22T21:42:33.870Z,25.12
2022-09-22T21:45:22.454Z,25.03
2022-09-22T21:48:11.241Z,25.05
2022-09-22T21:51:01.395Z,25.05
2022-09-22T21:53:52.814Z,25.10
2022-09-22T21:56:42.815Z,25.08
2022-09-22T21:59:31.326Z,25.03
2022-09-22T22:02:19.724Z,25.05
2022-09-22T22:05:08.511Z,25.05
2022-09-22T22:07:57.005Z,25.04
2022-09-22T22:10:46.877Z,25.05
2022-09-22T22:13:38.630Z,25.04
2022-09-22T22:16:31.232Z,25.01
2022-09-22T22:19:21.844Z,25.05
2022-09-22T22:22:11.095Z,25.08
2022-09-22T22:24:59.487Z,25.05
2022-09-22T22:27:47.920Z,24.97
2022-09-22T22:30:41.918Z,24.93
2022-09-22T22:33:31.425Z,24.94
2022-09-22T22:36:20.074Z,24.92
2022-09-22T22:39:08.815Z,24.91
2022-09-22T22:41:57.508Z,24.90
2022-09-22T22:44:45.917Z,24.87
2022-09-22T22:47:35.660Z,24.87
2022-09-22T22:50:25.595Z,24.81
2022-09-22T22:53:14.978Z,24.82
2022-09-22T22:56:05.435Z,24.84
2022-09-22T22:58:54.105Z,24.84
2022-09-22T23:01:44.542Z,24.82
2022-09-22T23:04:34.488Z,24.83
2022-09-22T23:07:22.852Z,24.82
2022-09-22T23:10:11.373Z,24.82
2022-09-22T23:13:01.221Z,24.81
2022-09-22T23:15:51.249Z,24.77
2022-09-22T23:18:42.192Z,24.75
2022-09-22T23:21:34.205Z,24.80
2022-09-22T23:24:22.725Z,24.77
2022-09-22T23:27:12.276Z,24.75
2022-09-22T23:30:00.696Z,24.75
2022-09-22T23:32:49.071Z,24.74
2022-09-22T23:35:37.519Z,24.78
2022-09-22T23:38:29.341Z,24.74
2022-09-22T23:41:18.059Z,24.74
2022-09-22T23:44:07.408Z,24.69
2022-09-22T23:46:56.087Z,24.73
2022-09-22T23:49:44.812Z,24.71
2022-09-22T23:52:33.259Z,24.69
2022-09-22T23:55:23.096Z,24.71
2022-09-22T23:58:12.101Z,24.71
